Flight Number: EUR1439 Duration: 3:00
Departure: Amsterdam Schiphol (EHAM) at 08:15 Distance: 1106 Nm
Arrival: Skiathos (LGSK) at 11:15 Equipment: B737

Weather Information
404 Not Found

Not Found

The requested URL /data/observations/metar/decoded/EHAM.TXT was not found on this server.


Sunrise: 03:37 Sunset: 19:38 (UTC)

Skiathos Island, Greece (LGSK) 39-11N 023-30E May 23, 2018 - 01:50 PM EDT / 2018.05.23 1750 UTC
Wind: Calm:0
Visibility: greater than 7 mile(s):0
Sky conditions: mostly clear Temperature: 69 F (21 C) Dew Point: 62 F (17 C) Relative Humidity: 77% Pressure (altimeter): 29.97 in. Hg (1015 hPa)
ob: LGSK 231750Z 00000KT 9999 FEW020 21/17 Q1015 cycle: 18
Sunrise: 03:08 Sunset: 17:36 (UTC)

TAF:2012/09/27 00:18 TAF LGSK 272300Z 2800/2909 01010KT 9999 FEW020

Previous Pireps for this route
Date Aircraft Flight time Fuel used Landing rate On time
2014-10-10B7372.52184140Yes
2015-10-12B73702.5225727-364No
2017-02-21B7373.1023104-304No
(pireps marked green are flown by you)

Route map